sensor_id;sensor_type;location;lat;lon;timestamp;P1;durP1;ratioP1;P2;durP2;ratioP2
62696;SDS011;48761;42.680;23.312;2023-04-15T00:02:13;9.98;;;6.38;;
62696;SDS011;48761;42.680;23.312;2023-04-15T00:04:40;11.13;;;5.93;;
62696;SDS011;48761;42.680;23.312;2023-04-15T00:07:06;16.10;;;7.03;;
62696;SDS011;48761;42.680;23.312;2023-04-15T00:09:31;16.52;;;7.35;;
62696;SDS011;48761;42.680;23.312;2023-04-15T00:11:57;13.82;;;7.22;;
62696;SDS011;48761;42.680;23.312;2023-04-15T00:14:23;13.25;;;7.43;;
62696;SDS011;48761;42.680;23.312;2023-04-15T00:16:49;18.40;;;8.30;;
62696;SDS011;48761;42.680;23.312;2023-04-15T00:19:15;14.65;;;8.65;;
62696;SDS011;48761;42.680;23.312;2023-04-15T00:21:41;15.80;;;8.73;;
62696;SDS011;48761;42.680;23.312;2023-04-15T00:24:07;17.08;;;9.18;;
62696;SDS011;48761;42.680;23.312;2023-04-15T00:26:33;19.95;;;8.27;;
62696;SDS011;48761;42.680;23.312;2023-04-15T00:28:59;18.23;;;8.18;;
62696;SDS011;48761;42.680;23.312;2023-04-15T00:31:25;13.13;;;7.82;;
62696;SDS011;48761;42.680;23.312;2023-04-15T00:33:51;12.15;;;7.10;;
62696;SDS011;48761;42.680;23.312;2023-04-15T00:36:16;15.50;;;8.18;;
62696;SDS011;48761;42.680;23.312;2023-04-15T00:38:42;14.30;;;8.10;;
62696;SDS011;48761;42.680;23.312;2023-04-15T00:41:08;19.85;;;8.38;;
62696;SDS011;48761;42.680;23.312;2023-04-15T00:43:35;16.90;;;8.38;;
62696;SDS011;48761;42.680;23.312;2023-04-15T00:46:03;14.48;;;8.88;;
62696;SDS011;48761;42.680;23.312;2023-04-15T00:48:29;13.73;;;8.27;;
62696;SDS011;48761;42.680;23.312;2023-04-15T00:50:56;11.98;;;7.68;;
62696;SDS011;48761;42.680;23.312;2023-04-15T00:53:22;16.05;;;8.07;;
62696;SDS011;48761;42.680;23.312;2023-04-15T00:55:48;11.95;;;7.55;;
62696;SDS011;48761;42.680;23.312;2023-04-15T00:58:14;17.17;;;9.55;;
62696;SDS011;48761;42.680;23.312;2023-04-15T01:00:41;17.38;;;9.07;;
62696;SDS011;48761;42.680;23.312;2023-04-15T01:03:07;16.92;;;8.95;;
62696;SDS011;48761;42.680;23.312;2023-04-15T01:05:33;16.15;;;8.57;;
62696;SDS011;48761;42.680;23.312;2023-04-15T01:08:00;16.65;;;8.75;;
62696;SDS011;48761;42.680;23.312;2023-04-15T01:10:26;13.00;;;7.35;;
62696;SDS011;48761;42.680;23.312;2023-04-15T01:12:51;17.20;;;8.20;;
62696;SDS011;48761;42.680;23.312;2023-04-15T01:15:17;14.48;;;7.53;;
62696;SDS011;48761;42.680;23.312;2023-04-15T01:17:44;17.80;;;8.35;;
62696;SDS011;48761;42.680;23.312;2023-04-15T01:20:10;14.48;;;8.55;;
62696;SDS011;48761;42.680;23.312;2023-04-15T01:22:37;14.55;;;8.07;;
62696;SDS011;48761;42.680;23.312;2023-04-15T01:25:05;12.65;;;7.30;;
62696;SDS011;48761;42.680;23.312;2023-04-15T01:27:42;13.35;;;7.05;;
62696;SDS011;48761;42.680;23.312;2023-04-15T01:30:08;13.23;;;7.05;;
62696;SDS011;48761;42.680;23.312;2023-04-15T01:32:34;11.90;;;6.53;;
62696;SDS011;48761;42.680;23.312;2023-04-15T01:35:00;12.98;;;7.57;;
62696;SDS011;48761;42.680;23.312;2023-04-15T01:37:26;14.52;;;7.03;;
62696;SDS011;48761;42.680;23.312;2023-04-15T01:39:52;14.30;;;7.60;;
62696;SDS011;48761;42.680;23.312;2023-04-15T01:42:19;12.23;;;7.25;;
62696;SDS011;48761;42.680;23.312;2023-04-15T01:44:46;11.32;;;6.75;;
62696;SDS011;48761;42.680;23.312;2023-04-15T01:47:12;11.85;;;7.50;;
62696;SDS011;48761;42.680;23.312;2023-04-15T01:49:37;11.18;;;6.97;;
62696;SDS011;48761;42.680;23.312;2023-04-15T01:52:03;16.05;;;7.30;;
62696;SDS011;48761;42.680;23.312;2023-04-15T01:54:29;12.18;;;7.03;;
62696;SDS011;48761;42.680;23.312;2023-04-15T01:56:55;11.25;;;6.85;;
62696;SDS011;48761;42.680;23.312;2023-04-15T01:59:21;11.55;;;6.53;;
62696;SDS011;48761;42.680;23.312;2023-04-15T02:01:47;10.25;;;6.47;;
62696;SDS011;48761;42.680;23.312;2023-04-15T02:04:13;12.13;;;5.97;;
62696;SDS011;48761;42.680;23.312;2023-04-15T02:06:39;10.02;;;5.55;;
62696;SDS011;48761;42.680;23.312;2023-04-15T02:09:05;10.95;;;5.85;;
62696;SDS011;48761;42.680;23.312;2023-04-15T02:11:31;8.43;;;5.32;;
62696;SDS011;48761;42.680;23.312;2023-04-15T02:13:57;13.40;;;6.10;;
62696;SDS011;48761;42.680;23.312;2023-04-15T02:16:23;11.63;;;5.95;;
62696;SDS011;48761;42.680;23.312;2023-04-15T02:18:49;9.40;;;6.30;;
62696;SDS011;48761;42.680;23.312;2023-04-15T02:21:14;10.95;;;6.70;;
62696;SDS011;48761;42.680;23.312;2023-04-15T02:23:40;12.27;;;6.90;;
62696;SDS011;48761;42.680;23.312;2023-04-15T02:26:06;11.52;;;6.60;;
62696;SDS011;48761;42.680;23.312;2023-04-15T02:28:32;12.98;;;6.00;;
62696;SDS011;48761;42.680;23.312;2023-04-15T02:30:58;11.88;;;6.38;;
62696;SDS011;48761;42.680;23.312;2023-04-15T02:33:24;11.60;;;7.03;;
62696;SDS011;48761;42.680;23.312;2023-04-15T02:35:50;14.90;;;6.43;;
62696;SDS011;48761;42.680;23.312;2023-04-15T02:38:16;10.68;;;5.88;;
62696;SDS011;48761;42.680;23.312;2023-04-15T02:40:42;13.88;;;5.97;;
62696;SDS011;48761;42.680;23.312;2023-04-15T02:43:08;14.68;;;7.28;;
62696;SDS011;48761;42.680;23.312;2023-04-15T02:45:34;12.50;;;7.15;;
62696;SDS011;48761;42.680;23.312;2023-04-15T02:48:00;10.80;;;7.72;;
62696;SDS011;48761;42.680;23.312;2023-04-15T02:50:26;14.23;;;7.80;;
62696;SDS011;48761;42.680;23.312;2023-04-15T02:52:52;17.25;;;9.15;;
62696;SDS011;48761;42.680;23.312;2023-04-15T02:55:18;14.90;;;8.35;;
62696;SDS011;48761;42.680;23.312;2023-04-15T02:57:44;14.65;;;9.15;;
62696;SDS011;48761;42.680;23.312;2023-04-15T03:00:10;15.60;;;9.55;;
62696;SDS011;48761;42.680;23.312;2023-04-15T03:02:37;17.58;;;9.02;;
62696;SDS011;48761;42.680;23.312;2023-04-15T03:05:04;15.95;;;9.23;;
62696;SDS011;48761;42.680;23.312;2023-04-15T03:07:30;17.73;;;9.07;;
62696;SDS011;48761;42.680;23.312;2023-04-15T03:09:56;15.55;;;8.70;;
62696;SDS011;48761;42.680;23.312;2023-04-15T03:12:22;16.23;;;9.25;;
62696;SDS011;48761;42.680;23.312;2023-04-15T03:14:48;16.35;;;9.20;;
62696;SDS011;48761;42.680;23.312;2023-04-15T03:17:14;14.60;;;7.97;;
62696;SDS011;48761;42.680;23.312;2023-04-15T03:19:40;14.38;;;9.45;;
62696;SDS011;48761;42.680;23.312;2023-04-15T03:22:05;18.67;;;12.40;;
62696;SDS011;48761;42.680;23.312;2023-04-15T03:24:31;23.75;;;15.10;;
62696;SDS011;48761;42.680;23.312;2023-04-15T03:26:57;21.77;;;9.73;;
62696;SDS011;48761;42.680;23.312;2023-04-15T03:29:23;15.88;;;9.48;;
62696;SDS011;48761;42.680;23.312;2023-04-15T03:31:49;14.15;;;8.38;;
62696;SDS011;48761;42.680;23.312;2023-04-15T03:34:16;16.60;;;9.65;;
62696;SDS011;48761;42.680;23.312;2023-04-15T03:36:42;14.18;;;8.25;;
62696;SDS011;48761;42.680;23.312;2023-04-15T03:39:08;14.50;;;7.72;;
62696;SDS011;48761;42.680;23.312;2023-04-15T03:41:34;11.68;;;7.28;;
62696;SDS011;48761;42.680;23.312;2023-04-15T03:44:00;12.13;;;6.88;;
62696;SDS011;48761;42.680;23.312;2023-04-15T03:46:26;12.82;;;6.70;;
62696;SDS011;48761;42.680;23.312;2023-04-15T03:48:52;15.30;;;7.03;;
62696;SDS011;48761;42.680;23.312;2023-04-15T03:51:18;15.35;;;9.13;;
62696;SDS011;48761;42.680;23.312;2023-04-15T03:53:44;17.48;;;8.70;;
62696;SDS011;48761;42.680;23.312;2023-04-15T03:56:10;17.77;;;9.90;;
62696;SDS011;48761;42.680;23.312;2023-04-15T03:58:36;22.67;;;14.43;;
62696;SDS011;48761;42.680;23.312;2023-04-15T04:01:01;28.58;;;17.58;;
62696;SDS011;48761;42.680;23.312;2023-04-15T04:03:27;16.20;;;8.15;;
62696;SDS011;48761;42.680;23.312;2023-04-15T04:05:53;15.15;;;8.18;;
62696;SDS011;48761;42.680;23.312;2023-04-15T04:08:20;14.70;;;8.40;;
62696;SDS011;48761;42.680;23.312;2023-04-15T04:10:45;17.73;;;9.43;;
62696;SDS011;48761;42.680;23.312;2023-04-15T04:13:11;16.30;;;8.88;;
62696;SDS011;48761;42.680;23.312;2023-04-15T04:15:37;20.35;;;10.35;;
62696;SDS011;48761;42.680;23.312;2023-04-15T04:18:03;17.27;;;8.93;;
62696;SDS011;48761;42.680;23.312;2023-04-15T04:20:29;19.42;;;9.18;;
62696;SDS011;48761;42.680;23.312;2023-04-15T04:22:55;16.67;;;8.95;;
62696;SDS011;48761;42.680;23.312;2023-04-15T04:25:21;16.25;;;9.02;;
62696;SDS011;48761;42.680;23.312;2023-04-15T04:27:47;14.80;;;9.18;;
62696;SDS011;48761;42.680;23.312;2023-04-15T04:30:13;14.55;;;8.70;;
62696;SDS011;48761;42.680;23.312;2023-04-15T04:32:39;18.83;;;9.05;;
62696;SDS011;48761;42.680;23.312;2023-04-15T04:35:04;14.00;;;8.18;;
62696;SDS011;48761;42.680;23.312;2023-04-15T04:37:30;16.17;;;8.30;;
62696;SDS011;48761;42.680;23.312;2023-04-15T04:39:56;14.60;;;8.77;;
62696;SDS011;48761;42.680;23.312;2023-04-15T04:42:22;13.73;;;8.18;;
62696;SDS011;48761;42.680;23.312;2023-04-15T04:44:48;14.27;;;8.32;;
62696;SDS011;48761;42.680;23.312;2023-04-15T04:47:14;19.92;;;10.00;;
62696;SDS011;48761;42.680;23.312;2023-04-15T04:49:40;14.13;;;8.40;;
62696;SDS011;48761;42.680;23.312;2023-04-15T04:52:06;13.43;;;8.57;;
62696;SDS011;48761;42.680;23.312;2023-04-15T04:54:32;15.77;;;9.07;;
62696;SDS011;48761;42.680;23.312;2023-04-15T04:56:58;15.50;;;7.78;;
62696;SDS011;48761;42.680;23.312;2023-04-15T04:59:24;14.73;;;7.47;;
62696;SDS011;48761;42.680;23.312;2023-04-15T05:01:50;11.38;;;7.20;;
62696;SDS011;48761;42.680;23.312;2023-04-15T05:04:16;10.52;;;7.30;;
62696;SDS011;48761;42.680;23.312;2023-04-15T05:06:42;11.60;;;7.55;;
62696;SDS011;48761;42.680;23.312;2023-04-15T05:09:08;11.77;;;6.65;;
62696;SDS011;48761;42.680;23.312;2023-04-15T05:11:34;13.70;;;7.85;;
62696;SDS011;48761;42.680;23.312;2023-04-15T05:14:00;10.05;;;7.22;;
62696;SDS011;48761;42.680;23.312;2023-04-15T05:16:26;13.30;;;6.60;;
62696;SDS011;48761;42.680;23.312;2023-04-15T05:18:52;10.02;;;6.72;;
62696;SDS011;48761;42.680;23.312;2023-04-15T05:21:19;10.70;;;6.25;;
62696;SDS011;48761;42.680;23.312;2023-04-15T05:23:45;9.77;;;6.00;;
62696;SDS011;48761;42.680;23.312;2023-04-15T05:26:11;10.65;;;6.32;;
62696;SDS011;48761;42.680;23.312;2023-04-15T05:28:37;11.13;;;6.00;;
62696;SDS011;48761;42.680;23.312;2023-04-15T05:31:03;11.15;;;6.75;;
62696;SDS011;48761;42.680;23.312;2023-04-15T05:33:29;10.70;;;5.55;;
62696;SDS011;48761;42.680;23.312;2023-04-15T05:35:55;13.20;;;6.35;;
62696;SDS011;48761;42.680;23.312;2023-04-15T05:38:21;13.75;;;8.18;;
62696;SDS011;48761;42.680;23.312;2023-04-15T05:40:47;12.60;;;6.78;;
62696;SDS011;48761;42.680;23.312;2023-04-15T05:43:13;11.77;;;5.75;;
62696;SDS011;48761;42.680;23.312;2023-04-15T05:45:39;7.38;;;4.88;;
62696;SDS011;48761;42.680;23.312;2023-04-15T05:48:05;8.18;;;5.30;;
62696;SDS011;48761;42.680;23.312;2023-04-15T05:50:31;10.13;;;5.13;;
62696;SDS011;48761;42.680;23.312;2023-04-15T05:52:57;8.45;;;4.60;;
62696;SDS011;48761;42.680;23.312;2023-04-15T05:55:23;7.57;;;5.00;;
62696;SDS011;48761;42.680;23.312;2023-04-15T05:57:49;10.10;;;5.63;;
62696;SDS011;48761;42.680;23.312;2023-04-15T06:00:14;9.93;;;5.53;;
62696;SDS011;48761;42.680;23.312;2023-04-15T06:02:40;13.40;;;5.85;;
62696;SDS011;48761;42.680;23.312;2023-04-15T06:05:06;9.73;;;5.35;;
62696;SDS011;48761;42.680;23.312;2023-04-15T06:07:32;10.73;;;5.80;;
62696;SDS011;48761;42.680;23.312;2023-04-15T06:09:58;9.38;;;5.72;;
62696;SDS011;48761;42.680;23.312;2023-04-15T06:12:24;12.02;;;5.75;;
62696;SDS011;48761;42.680;23.312;2023-04-15T06:14:50;8.68;;;6.25;;
62696;SDS011;48761;42.680;23.312;2023-04-15T06:17:16;11.25;;;6.20;;
62696;SDS011;48761;42.680;23.312;2023-04-15T06:19:42;10.13;;;6.32;;
62696;SDS011;48761;42.680;23.312;2023-04-15T06:22:08;11.48;;;5.53;;
62696;SDS011;48761;42.680;23.312;2023-04-15T06:24:34;11.35;;;5.50;;
62696;SDS011;48761;42.680;23.312;2023-04-15T06:27:00;11.02;;;5.78;;
62696;SDS011;48761;42.680;23.312;2023-04-15T06:29:26;9.82;;;6.60;;
62696;SDS011;48761;42.680;23.312;2023-04-15T06:31:52;10.38;;;6.00;;
62696;SDS011;48761;42.680;23.312;2023-04-15T06:34:18;9.50;;;5.88;;
62696;SDS011;48761;42.680;23.312;2023-04-15T06:36:44;8.60;;;5.28;;
62696;SDS011;48761;42.680;23.312;2023-04-15T06:39:10;11.13;;;5.47;;
62696;SDS011;48761;42.680;23.312;2023-04-15T06:41:36;10.45;;;5.55;;
62696;SDS011;48761;42.680;23.312;2023-04-15T06:44:02;8.52;;;4.90;;
62696;SDS011;48761;42.680;23.312;2023-04-15T06:46:28;7.05;;;4.78;;
62696;SDS011;48761;42.680;23.312;2023-04-15T06:48:54;8.75;;;4.80;;
62696;SDS011;48761;42.680;23.312;2023-04-15T06:51:21;10.20;;;5.07;;
62696;SDS011;48761;42.680;23.312;2023-04-15T06:53:47;9.82;;;4.68;;
62696;SDS011;48761;42.680;23.312;2023-04-15T06:56:13;7.40;;;4.72;;
62696;SDS011;48761;42.680;23.312;2023-04-15T06:58:39;7.93;;;4.78;;
62696;SDS011;48761;42.680;23.312;2023-04-15T07:01:04;10.38;;;5.22;;
62696;SDS011;48761;42.680;23.312;2023-04-15T07:03:30;11.73;;;5.40;;
62696;SDS011;48761;42.680;23.312;2023-04-15T07:05:56;10.77;;;6.35;;
62696;SDS011;48761;42.680;23.312;2023-04-15T07:08:22;13.40;;;7.13;;
62696;SDS011;48761;42.680;23.312;2023-04-15T07:10:48;14.75;;;6.65;;
62696;SDS011;48761;42.680;23.312;2023-04-15T07:13:14;12.85;;;6.47;;
62696;SDS011;48761;42.680;23.312;2023-04-15T07:15:40;10.57;;;6.35;;
62696;SDS011;48761;42.680;23.312;2023-04-15T07:18:06;11.98;;;6.35;;
62696;SDS011;48761;42.680;23.312;2023-04-15T07:20:32;11.52;;;5.72;;
62696;SDS011;48761;42.680;23.312;2023-04-15T07:22:58;11.82;;;6.22;;
62696;SDS011;48761;42.680;23.312;2023-04-15T07:25:24;9.38;;;5.70;;
62696;SDS011;48761;42.680;23.312;2023-04-15T07:27:51;11.35;;;4.95;;
62696;SDS011;48761;42.680;23.312;2023-04-15T07:30:17;8.05;;;5.10;;
62696;SDS011;48761;42.680;23.312;2023-04-15T07:32:43;9.75;;;5.07;;
62696;SDS011;48761;42.680;23.312;2023-04-15T07:35:09;12.32;;;5.95;;
62696;SDS011;48761;42.680;23.312;2023-04-15T07:37:35;10.73;;;5.85;;
62696;SDS011;48761;42.680;23.312;2023-04-15T07:40:01;9.95;;;6.10;;
62696;SDS011;48761;42.680;23.312;2023-04-15T07:42:27;9.68;;;6.13;;
62696;SDS011;48761;42.680;23.312;2023-04-15T07:44:53;12.95;;;5.65;;
62696;SDS011;48761;42.680;23.312;2023-04-15T07:47:19;8.75;;;5.30;;
62696;SDS011;48761;42.680;23.312;2023-04-15T07:49:45;7.72;;;4.65;;
62696;SDS011;48761;42.680;23.312;2023-04-15T07:52:12;10.68;;;4.28;;
62696;SDS011;48761;42.680;23.312;2023-04-15T07:54:38;10.75;;;4.97;;
62696;SDS011;48761;42.680;23.312;2023-04-15T07:57:04;10.88;;;5.45;;
62696;SDS011;48761;42.680;23.312;2023-04-15T07:59:29;8.88;;;5.18;;
62696;SDS011;48761;42.680;23.312;2023-04-15T08:01:55;8.00;;;4.40;;
62696;SDS011;48761;42.680;23.312;2023-04-15T08:04:21;8.32;;;4.65;;
62696;SDS011;48761;42.680;23.312;2023-04-15T08:06:47;6.88;;;3.95;;
62696;SDS011;48761;42.680;23.312;2023-04-15T08:09:13;6.20;;;3.47;;
62696;SDS011;48761;42.680;23.312;2023-04-15T08:11:39;6.18;;;3.35;;
62696;SDS011;48761;42.680;23.312;2023-04-15T08:14:05;12.52;;;3.75;;
62696;SDS011;48761;42.680;23.312;2023-04-15T08:16:31;11.27;;;3.85;;
62696;SDS011;48761;42.680;23.312;2023-04-15T08:18:58;6.55;;;2.67;;
62696;SDS011;48761;42.680;23.312;2023-04-15T08:21:24;4.50;;;2.05;;
62696;SDS011;48761;42.680;23.312;2023-04-15T08:23:51;3.00;;;1.70;;
62696;SDS011;48761;42.680;23.312;2023-04-15T08:26:18;3.35;;;1.67;;
62696;SDS011;48761;42.680;23.312;2023-04-15T08:28:44;2.80;;;1.60;;
62696;SDS011;48761;42.680;23.312;2023-04-15T08:31:11;2.63;;;1.38;;
62696;SDS011;48761;42.680;23.312;2023-04-15T08:33:38;3.10;;;1.80;;
62696;SDS011;48761;42.680;23.312;2023-04-15T08:36:05;4.93;;;2.10;;
62696;SDS011;48761;42.680;23.312;2023-04-15T08:38:31;4.47;;;2.03;;
62696;SDS011;48761;42.680;23.312;2023-04-15T08:40:57;5.55;;;1.75;;
62696;SDS011;48761;42.680;23.312;2023-04-15T08:43:28;7.18;;;2.08;;
62696;SDS011;48761;42.680;23.312;2023-04-15T08:45:59;5.95;;;1.88;;
62696;SDS011;48761;42.680;23.312;2023-04-15T08:48:29;4.38;;;1.48;;
62696;SDS011;48761;42.680;23.312;2023-04-15T08:50:57;2.95;;;1.30;;
62696;SDS011;48761;42.680;23.312;2023-04-15T08:53:25;2.95;;;1.30;;
62696;SDS011;48761;42.680;23.312;2023-04-15T08:55:53;4.22;;;1.40;;
62696;SDS011;48761;42.680;23.312;2023-04-15T08:58:22;2.40;;;1.10;;
62696;SDS011;48761;42.680;23.312;2023-04-15T09:00:48;5.13;;;1.58;;
62696;SDS011;48761;42.680;23.312;2023-04-15T09:03:14;3.45;;;1.30;;
62696;SDS011;48761;42.680;23.312;2023-04-15T09:05:41;2.42;;;1.40;;
62696;SDS011;48761;42.680;23.312;2023-04-15T09:08:07;5.10;;;1.27;;
62696;SDS011;48761;42.680;23.312;2023-04-15T09:10:33;3.42;;;1.67;;
62696;SDS011;48761;42.680;23.312;2023-04-15T09:12:59;4.18;;;1.48;;
62696;SDS011;48761;42.680;23.312;2023-04-15T09:15:26;3.30;;;1.35;;
62696;SDS011;48761;42.680;23.312;2023-04-15T09:17:52;3.58;;;1.45;;
62696;SDS011;48761;42.680;23.312;2023-04-15T09:20:18;6.22;;;1.75;;
62696;SDS011;48761;42.680;23.312;2023-04-15T09:22:45;4.68;;;2.10;;
62696;SDS011;48761;42.680;23.312;2023-04-15T09:27:50;7.07;;;2.60;;
62696;SDS011;48761;42.680;23.312;2023-04-15T09:30:17;6.57;;;2.75;;
62696;SDS011;48761;42.680;23.312;2023-04-15T09:32:49;5.03;;;2.65;;
62696;SDS011;48761;42.680;23.312;2023-04-15T09:35:20;16.63;;;11.25;;
62696;SDS011;48761;42.680;23.312;2023-04-15T09:37:47;6.45;;;2.95;;
62696;SDS011;48761;42.680;23.312;2023-04-15T09:43:02;10.82;;;6.55;;
62696;SDS011;48761;42.680;23.312;2023-04-15T09:45:29;7.55;;;2.55;;
62696;SDS011;48761;42.680;23.312;2023-04-15T09:47:57;5.93;;;2.63;;
62696;SDS011;48761;42.680;23.312;2023-04-15T09:50:27;7.03;;;4.00;;
62696;SDS011;48761;42.680;23.312;2023-04-15T09:52:54;4.30;;;1.92;;
62696;SDS011;48761;42.680;23.312;2023-04-15T09:55:20;4.43;;;1.90;;
62696;SDS011;48761;42.680;23.312;2023-04-15T09:57:46;5.18;;;2.13;;
62696;SDS011;48761;42.680;23.312;2023-04-15T10:00:12;4.45;;;1.77;;
62696;SDS011;48761;42.680;23.312;2023-04-15T10:02:39;3.20;;;1.60;;
62696;SDS011;48761;42.680;23.312;2023-04-15T10:05:06;6.28;;;1.67;;
62696;SDS011;48761;42.680;23.312;2023-04-15T10:07:34;5.88;;;1.90;;
62696;SDS011;48761;42.680;23.312;2023-04-15T10:10:01;5.90;;;3.00;;
62696;SDS011;48761;42.680;23.312;2023-04-15T10:12:28;7.97;;;4.65;;
62696;SDS011;48761;42.680;23.312;2023-04-15T10:14:57;2.60;;;0.73;;
62696;SDS011;48761;42.680;23.312;2023-04-15T10:17:27;6.88;;;2.88;;
62696;SDS011;48761;42.680;23.312;2023-04-15T10:19:55;4.75;;;3.10;;
62696;SDS011;48761;42.680;23.312;2023-04-15T10:22:21;6.18;;;2.15;;
62696;SDS011;48761;42.680;23.312;2023-04-15T10:24:48;5.28;;;3.45;;
62696;SDS011;48761;42.680;23.312;2023-04-15T10:27:16;2.00;;;0.80;;
62696;SDS011;48761;42.680;23.312;2023-04-15T10:29:42;4.22;;;0.80;;
62696;SDS011;48761;42.680;23.312;2023-04-15T10:32:08;2.55;;;1.38;;
62696;SDS011;48761;42.680;23.312;2023-04-15T10:34:35;5.65;;;3.85;;
62696;SDS011;48761;42.680;23.312;2023-04-15T10:37:02;15.35;;;10.70;;
62696;SDS011;48761;42.680;23.312;2023-04-15T10:44:39;2.80;;;2.00;;
62696;SDS011;48761;42.680;23.312;2023-04-15T10:47:14;3.78;;;1.15;;
62696;SDS011;48761;42.680;23.312;2023-04-15T10:49:42;2.88;;;0.98;;
62696;SDS011;48761;42.680;23.312;2023-04-15T10:52:26;3.95;;;1.80;;
62696;SDS011;48761;42.680;23.312;2023-04-15T10:57:39;4.10;;;1.65;;
62696;SDS011;48761;42.680;23.312;2023-04-15T11:00:16;2.00;;;0.82;;
62696;SDS011;48761;42.680;23.312;2023-04-15T11:05:13;5.35;;;2.40;;
62696;SDS011;48761;42.680;23.312;2023-04-15T11:07:56;3.55;;;1.80;;
62696;SDS011;48761;42.680;23.312;2023-04-15T11:13:04;2.35;;;1.73;;
62696;SDS011;48761;42.680;23.312;2023-04-15T11:15:41;5.57;;;3.30;;
62696;SDS011;48761;42.680;23.312;2023-04-15T11:20:54;2.20;;;1.25;;
62696;SDS011;48761;42.680;23.312;2023-04-15T11:23:29;2.55;;;1.58;;
62696;SDS011;48761;42.680;23.312;2023-04-15T11:26:00;9.20;;;5.15;;
62696;SDS011;48761;42.680;23.312;2023-04-15T11:28:29;2.78;;;1.42;;
62696;SDS011;48761;42.680;23.312;2023-04-15T11:30:55;4.47;;;1.60;;
62696;SDS011;48761;42.680;23.312;2023-04-15T11:33:22;2.35;;;1.10;;
62696;SDS011;48761;42.680;23.312;2023-04-15T11:35:50;1.98;;;1.02;;
62696;SDS011;48761;42.680;23.312;2023-04-15T11:38:17;2.88;;;0.95;;
62696;SDS011;48761;42.680;23.312;2023-04-15T11:40:44;24.52;;;17.38;;
62696;SDS011;48761;42.680;23.312;2023-04-15T11:43:20;22.15;;;14.40;;
62696;SDS011;48761;42.680;23.312;2023-04-15T11:48:21;3.83;;;1.70;;
62696;SDS011;48761;42.680;23.312;2023-04-15T11:51:07;19.70;;;13.37;;
62696;SDS011;48761;42.680;23.312;2023-04-15T11:53:46;24.95;;;16.77;;
62696;SDS011;48761;42.680;23.312;2023-04-15T11:56:24;5.07;;;2.63;;
62696;SDS011;48761;42.680;23.312;2023-04-15T11:58:55;3.25;;;1.70;;
62696;SDS011;48761;42.680;23.312;2023-04-15T12:01:34;3.90;;;1.90;;
62696;SDS011;48761;42.680;23.312;2023-04-15T12:04:02;35.40;;;25.40;;
62696;SDS011;48761;42.680;23.312;2023-04-15T12:06:35;2.83;;;1.27;;
62696;SDS011;48761;42.680;23.312;2023-04-15T12:09:14;3.33;;;2.00;;
62696;SDS011;48761;42.680;23.312;2023-04-15T12:11:45;5.93;;;4.20;;
62696;SDS011;48761;42.680;23.312;2023-04-15T12:14:28;3.85;;;1.95;;
62696;SDS011;48761;42.680;23.312;2023-04-15T12:16:59;3.15;;;1.45;;
62696;SDS011;48761;42.680;23.312;2023-04-15T12:21:57;2.90;;;1.23;;
62696;SDS011;48761;42.680;23.312;2023-04-15T12:24:32;3.45;;;1.13;;
62696;SDS011;48761;42.680;23.312;2023-04-15T12:27:03;3.92;;;1.80;;
62696;SDS011;48761;42.680;23.312;2023-04-15T12:29:31;2.70;;;1.15;;
62696;SDS011;48761;42.680;23.312;2023-04-15T12:32:05;3.20;;;1.42;;
62696;SDS011;48761;42.680;23.312;2023-04-15T12:34:39;1.90;;;0.90;;
62696;SDS011;48761;42.680;23.312;2023-04-15T12:37:07;1.35;;;0.70;;
62696;SDS011;48761;42.680;23.312;2023-04-15T12:39:35;3.75;;;1.50;;
62696;SDS011;48761;42.680;23.312;2023-04-15T12:42:04;2.45;;;1.05;;
62696;SDS011;48761;42.680;23.312;2023-04-15T12:44:31;2.10;;;1.00;;
62696;SDS011;48761;42.680;23.312;2023-04-15T12:46:57;2.15;;;1.15;;
62696;SDS011;48761;42.680;23.312;2023-04-15T12:49:24;2.55;;;1.10;;
62696;SDS011;48761;42.680;23.312;2023-04-15T12:51:51;18.42;;;12.95;;
62696;SDS011;48761;42.680;23.312;2023-04-15T12:54:18;5.57;;;2.55;;
62696;SDS011;48761;42.680;23.312;2023-04-15T12:56:45;3.45;;;1.13;;
62696;SDS011;48761;42.680;23.312;2023-04-15T12:59:12;1.75;;;0.80;;
62696;SDS011;48761;42.680;23.312;2023-04-15T13:01:39;2.90;;;1.25;;
62696;SDS011;48761;42.680;23.312;2023-04-15T13:04:05;1.80;;;1.00;;
62696;SDS011;48761;42.680;23.312;2023-04-15T13:06:32;2.22;;;0.80;;
62696;SDS011;48761;42.680;23.312;2023-04-15T13:08:58;1.85;;;0.80;;
62696;SDS011;48761;42.680;23.312;2023-04-15T13:11:24;2.50;;;0.90;;
62696;SDS011;48761;42.680;23.312;2023-04-15T13:13:50;0.63;;;0.50;;
62696;SDS011;48761;42.680;23.312;2023-04-15T13:16:16;1.83;;;0.80;;
62696;SDS011;48761;42.680;23.312;2023-04-15T13:18:43;2.35;;;0.70;;
62696;SDS011;48761;42.680;23.312;2023-04-15T13:21:09;1.40;;;0.70;;
62696;SDS011;48761;42.680;23.312;2023-04-15T13:23:35;2.10;;;1.00;;
62696;SDS011;48761;42.680;23.312;2023-04-15T13:26:01;3.40;;;0.93;;
62696;SDS011;48761;42.680;23.312;2023-04-15T13:28:27;1.65;;;0.75;;
62696;SDS011;48761;42.680;23.312;2023-04-15T13:30:52;3.72;;;0.95;;
62696;SDS011;48761;42.680;23.312;2023-04-15T13:33:19;1.70;;;0.60;;
62696;SDS011;48761;42.680;23.312;2023-04-15T13:35:44;2.42;;;0.77;;
62696;SDS011;48761;42.680;23.312;2023-04-15T13:38:11;1.77;;;0.70;;
62696;SDS011;48761;42.680;23.312;2023-04-15T13:40:37;2.33;;;0.80;;
62696;SDS011;48761;42.680;23.312;2023-04-15T13:43:03;2.25;;;0.75;;
62696;SDS011;48761;42.680;23.312;2023-04-15T13:45:29;3.75;;;0.95;;
62696;SDS011;48761;42.680;23.312;2023-04-15T13:47:56;1.85;;;0.80;;
62696;SDS011;48761;42.680;23.312;2023-04-15T13:50:22;4.43;;;0.80;;
62696;SDS011;48761;42.680;23.312;2023-04-15T13:52:48;1.85;;;1.20;;
62696;SDS011;48761;42.680;23.312;2023-04-15T13:55:15;2.17;;;0.82;;
62696;SDS011;48761;42.680;23.312;2023-04-15T13:57:41;1.33;;;0.60;;
62696;SDS011;48761;42.680;23.312;2023-04-15T14:00:07;4.10;;;0.75;;
62696;SDS011;48761;42.680;23.312;2023-04-15T14:02:33;3.38;;;1.15;;
62696;SDS011;48761;42.680;23.312;2023-04-15T14:04:59;12.88;;;8.55;;
62696;SDS011;48761;42.680;23.312;2023-04-15T14:07:25;19.08;;;12.93;;
62696;SDS011;48761;42.680;23.312;2023-04-15T14:09:53;1.27;;;0.70;;
62696;SDS011;48761;42.680;23.312;2023-04-15T14:12:19;3.53;;;0.95;;
62696;SDS011;48761;42.680;23.312;2023-04-15T14:14:45;2.50;;;0.82;;
62696;SDS011;48761;42.680;23.312;2023-04-15T14:17:11;3.00;;;0.73;;
62696;SDS011;48761;42.680;23.312;2023-04-15T14:19:37;2.83;;;0.85;;
62696;SDS011;48761;42.680;23.312;2023-04-15T14:22:03;2.47;;;0.85;;
62696;SDS011;48761;42.680;23.312;2023-04-15T14:24:29;2.65;;;1.00;;
62696;SDS011;48761;42.680;23.312;2023-04-15T14:26:55;1.90;;;1.10;;
62696;SDS011;48761;42.680;23.312;2023-04-15T14:29:21;3.35;;;0.73;;
62696;SDS011;48761;42.680;23.312;2023-04-15T14:31:47;1.33;;;0.75;;
62696;SDS011;48761;42.680;23.312;2023-04-15T14:34:13;2.70;;;0.77;;
62696;SDS011;48761;42.680;23.312;2023-04-15T14:36:39;2.05;;;1.00;;
62696;SDS011;48761;42.680;23.312;2023-04-15T14:39:05;1.75;;;0.90;;
62696;SDS011;48761;42.680;23.312;2023-04-15T14:41:31;1.67;;;0.60;;
62696;SDS011;48761;42.680;23.312;2023-04-15T14:43:57;2.60;;;1.00;;
62696;SDS011;48761;42.680;23.312;2023-04-15T14:46:24;3.63;;;0.98;;
62696;SDS011;48761;42.680;23.312;2023-04-15T14:48:50;2.05;;;0.85;;
62696;SDS011;48761;42.680;23.312;2023-04-15T14:51:16;2.60;;;0.60;;
62696;SDS011;48761;42.680;23.312;2023-04-15T14:53:42;1.05;;;0.55;;